Quinsam — VY6800 — position and weather

sailwx.info

Track history (hours):
 
Tides and Currents Weather Stations Pressure Air Temp Water Temp Dewpoint Dewpoint Depression Visibility Wind Speed Wind Dir Waves Ship Positions

Quinsam

Last reported at 2014-Sep-02 20:33 UTC. Time now 2014-Sep-02 21:15 UTC.
Position N 49°11' W 123°52'.

Length 88 m; draft 1.5 m.

Type: Ship. MMSI: 316001266.

Date/timePositionNaut miles runAvg speedWind from/ knotsBaromVisibWave heightAir tempDewpointWater temp
2014-Sep-02 20:33N 49°11' W 123°52'0 0.3
2014-Sep-02 19:23N 49°11' W 123°52'1 1.4
2014-Sep-02 18:33N 49°10' W 123°53'2 1.7
2014-Sep-02 17:33N 49°10' W 123°56'0 0.0
2014-Sep-02 16:21N 49°10' W 123°56'2 3.0
2014-Sep-02 15:33N 49°11' W 123°52'1 0.5
2014-Sep-02 14:33N 49°11' W 123°52'0 0.3
2014-Sep-02 13:33N 49°11' W 123°52'0 0.3
2014-Sep-02 12:33N 49°11' W 123°52'1 0.5
2014-Sep-02 11:18N 49°11' W 123°52'0 0.0
2014-Sep-02 09:33N 49°11' W 123°52'0 0.0
2014-Sep-02 08:30N 49°11' W 123°52'0 0.1
2014-Sep-02 06:22N 49°11' W 123°52'0 0.2
2014-Sep-02 05:33N 49°11' W 123°52'0 0.0
2014-Sep-02 04:33N 49°11' W 123°52'1 1.4
2014-Sep-02 03:33N 49°10' W 123°54'1 0.5
2014-Sep-02 02:33N 49°11' W 123°53'1 0.9
2014-Sep-02 01:33N 49°11' W 123°52'0 0.0
2014-Sep-02 00:33N 49°11' W 123°52'0 0.2
2014-Sep-01 23:33N 49°11' W 123°52'3 2.6
2014-Sep-01 22:34N 49°10' W 123°56'3 2.6
2014-Sep-01 21:28N 49°11' W 123°52'2 2.6
2014-Sep-01 20:33N 49°10' W 123°55'0 0.5
2014-Sep-01 19:33N 49°10' W 123°56'0 0.0
2014-Sep-01 18:25N 49°10' W 123°56'1 1.7
2014-Sep-01 17:33N 49°10' W 123°54'1 1.4
2014-Sep-01 16:33N 49°11' W 123°52'0 0.0
2014-Sep-01 15:33N 49°11' W 123°52'0 0.0
2014-Sep-01 14:33N 49°11' W 123°52'1 0.6
2014-Sep-01 13:34N 49°11' W 123°53'0 0.1
2014-Sep-01 12:33N 49°11' W 123°52'1 0.5
2014-Sep-01 11:25N 49°11' W 123°52'0 0.0
2014-Sep-01 10:31N 49°11' W 123°52'0 0.0
2014-Sep-01 09:31N 49°11' W 123°52'0 0.0
2014-Sep-01 08:31N 49°11' W 123°52'0 0.0
2014-Sep-01 07:25N 49°11' W 123°52'0 0.0
2014-Sep-01 06:19N 49°11' W 123°52'3 3.6
2014-Sep-01 05:33N 49°10' W 123°56'3 2.8
2014-Sep-01 04:33N 49°11' W 123°52'2 1.5
2014-Sep-01 03:33N 49°10' W 123°54'1 0.8
2014-Sep-01 02:33N 49°11' W 123°53'1 0.8
2014-Sep-01 01:33N 49°11' W 123°52'0 0.0
2014-Sep-01 00:33N 49°11' W 123°52'1 0.7
2014-Aug-31 23:33N 49°11' W 123°53'2 1.8
2014-Aug-31 22:30N 49°10' W 123°55'3 2.7
2014-Aug-31 21:33N 49°11' W 123°52'3 2.2
2014-Aug-31 20:16N 49°10' W 123°56'2 3.0
2014-Aug-31 19:32N 49°11' W 123°53'1 0.8
2014-Aug-31 18:33N 49°11' W 123°52'3 2.9
2014-Aug-31 17:33N 49°10' W 123°56'3 2.7
2014-Aug-31 16:33N 49°11' W 123°52'0 0.3
2014-Aug-31 15:33N 49°11' W 123°52'3 2.7
2014-Aug-31 14:28N 49°10' W 123°56'2 2.6
2014-Aug-31 13:33N 49°11' W 123°52'1 0.5
2014-Aug-31 12:30N 49°11' W 123°52'0 0.0
2014-Aug-31 11:33N 49°11' W 123°52'0 0.0
2014-Aug-31 10:30N 49°11' W 123°52'0 0.0
2014-Aug-31 09:27N 49°11' W 123°52'0 0.0
2014-Aug-31 08:30N 49°11' W 123°52'0 0.0
2014-Aug-31 06:30N 49°11' W 123°52'0 0.0
2014-Aug-31 05:33N 49°11' W 123°52'0 0.0
2014-Aug-31 04:32N 49°11' W 123°52'1 1.0
2014-Aug-31 03:33N 49°11' W 123°53'0 0.2
2014-Aug-31 02:33N 49°11' W 123°53'0 0.4
2014-Aug-31 01:33N 49°11' W 123°52'0 0.3
2014-Aug-31 00:33N 49°11' W 123°52'0 0.2
2014-Aug-30 23:33N 49°11' W 123°52'3 2.6
2014-Aug-30 22:33N 49°10' W 123°56'3 2.6
2014-Aug-30 21:29N 49°11' W 123°52'3 3.0
2014-Aug-30 20:30N 49°10' W 123°56'1 0.9
2014-Aug-30 19:33N 49°10' W 123°55'2 2.0
2014-Aug-30 18:33N 49°11' W 123°52'3 2.8
2014-Aug-30 17:32N 49°10' W 123°56'2 2.5
2014-Aug-30 16:33N 49°11' W 123°52'0 0.4
2014-Aug-30 15:33N 49°11' W 123°52'0 0.0
2014-Aug-30 14:33N 49°11' W 123°52'0 0.4
2014-Aug-30 13:33N 49°11' W 123°52'0 0.4
2014-Aug-30 12:31N 49°11' W 123°52'0 0.0
2014-Aug-30 11:31N 49°11' W 123°52'0 0.0
2014-Aug-30 10:25N 49°11' W 123°52'0 0.0
2014-Aug-30 09:13N 49°11' W 123°52'0 0.0
2014-Aug-30 08:28N 49°11' W 123°52'0 0.2
2014-Aug-30 06:32N 49°11' W 123°52'0 0.1
2014-Aug-30 05:32N 49°11' W 123°52'1 0.4
2014-Aug-30 04:07N 49°11' W 123°52'3 5.1
2014-Aug-30 03:33N 49°10' W 123°56'0 0.1
2014-Aug-30 02:33N 49°10' W 123°56'2 1.6
2014-Aug-30 01:33N 49°10' W 123°53'1 1.2
2014-Aug-30 00:31N 49°11' W 123°52'0 0.4
2014-Aug-29 23:33N 49°11' W 123°52'2 2.5
2014-Aug-29 22:33N 49°10' W 123°56'2 2.0
2014-Aug-29 21:32N 49°11' W 123°53'1 0.7
2014-Aug-29 20:29N 49°11' W 123°52'3 3.1
2014-Aug-29 19:33N 49°10' W 123°56'0 0.0
2014-Aug-29 18:21N 49°10' W 123°56'1 1.5
2014-Aug-29 17:33N 49°10' W 123°54'1 1.4
2014-Aug-29 16:33N 49°11' W 123°52'0 0.2
2014-Aug-29 15:33N 49°11' W 123°52'0 0.0
2014-Aug-29 14:33N 49°11' W 123°52'0 0.4
2014-Aug-29 13:33N 49°11' W 123°52'0 0.2
2014-Aug-29 12:33N 49°11' W 123°52'1 0.5
2014-Aug-29 11:30N 49°11' W 123°52'0 0.0
2014-Aug-29 10:30N 49°11' W 123°52'0 0.0
2014-Aug-29 09:24N 49°11' W 123°52'0 0.0
2014-Aug-29 06:23N 49°11' W 123°52'0 0.1
2014-Aug-29 05:33N 49°11' W 123°52'0 0.0
2014-Aug-29 04:32N 49°11' W 123°52'3 2.9
2014-Aug-29 03:33N 49°10' W 123°56'0 0.0
2014-Aug-29 02:32N 49°10' W 123°56'2 1.7
2014-Aug-29 01:33N 49°10' W 123°53'1 0.5
2014-Aug-29 00:25N 49°11' W 123°53'0 0.1
2014-Aug-28 23:08N 49°11' W 123°52'2 4.0
2014-Aug-28 22:33N 49°10' W 123°56'1 0.8
2014-Aug-28 21:33N 49°10' W 123°55'1 1.2
2014-Aug-28 20:27N 49°11' W 123°53'0 0.2
2014-Aug-28 19:11N 49°11' W 123°53'1 2.3
2014-Aug-28 18:33N 49°10' W 123°55'1 0.8
2014-Aug-28 17:32N 49°10' W 123°56'1 1.2
2014-Aug-28 16:33N 49°10' W 123°54'2 1.7
2014-Aug-28 15:33N 49°11' W 123°52'0 0.0
2014-Aug-28 14:33N 49°11' W 123°52'0 0.0
2014-Aug-28 13:33N 49°11' W 123°52'0 0.2
2014-Aug-28 12:33N 49°11' W 123°52'0 0.1
2014-Aug-28 10:33N 49°11' W 123°52'0 0.0
2014-Aug-28 09:27N 49°11' W 123°52'0 0.0
2014-Aug-28 08:12N 49°11' W 123°52'0 0.0
2014-Aug-28 06:33N 49°11' W 123°52'3 2.1
2014-Aug-28 05:12N 49°10' W 123°56'1 0.7
2014-Aug-28 03:33N 49°10' W 123°54'0 0.1
2014-Aug-28 02:33N 49°10' W 123°54'1 0.8
2014-Aug-28 01:28N 49°11' W 123°53'1 0.9
2014-Aug-28 00:33N 49°11' W 123°52'0 0.4
2014-Aug-27 23:33N 49°11' W 123°52'2 2.5
2014-Aug-27 22:33N 49°10' W 123°56'3 2.9
2014-Aug-27 21:33N 49°11' W 123°52'1 0.8
2014-Aug-27 20:33N 49°11' W 123°53'2 2.0
2014-Aug-27 19:32N 49°10' W 123°56'0 0.0
2014-Aug-27 18:30N 49°10' W 123°56'0 0.2
2014-Aug-27 17:33N 49°10' W 123°56'2 2.1
2014-Aug-27 16:30N 49°11' W 123°52'1 0.6
2014-Aug-27 15:33N 49°11' W 123°52'0 0.0
2014-Aug-27 14:30N 49°11' W 123°52'0 0.1
2014-Aug-27 13:32N 49°11' W 123°52'0 0.3
2014-Aug-27 12:33N 49°11' W 123°52'0 0.4
2014-Aug-27 11:31N 49°11' W 123°52'0 0.0
2014-Aug-27 10:31N 49°11' W 123°52'0 0.0
2014-Aug-27 09:07N 49°11' W 123°52'0 0.0
2014-Aug-27 08:31N 49°11' W 123°52'0 0.0
2014-Aug-27 06:26N 49°11' W 123°52'0 0.0
2014-Aug-27 05:33N 49°11' W 123°52'0 0.0
2014-Aug-27 04:33N 49°11' W 123°52'1 1.5
2014-Aug-27 03:33N 49°10' W 123°54'1 0.9
2014-Aug-27 02:33N 49°11' W 123°52'0 0.4
2014-Aug-27 01:29N 49°11' W 123°52'0 0.0
2014-Aug-27 00:22N 49°11' W 123°52'1 0.9
2014-Aug-26 23:34N 49°11' W 123°53'2 2.0
2014-Aug-26 22:33N 49°10' W 123°56'2 2.1
2014-Aug-26 21:28N 49°11' W 123°53'0 0.4
2014-Aug-26 20:23N 49°11' W 123°52'1 0.9
2014-Aug-26 19:33N 49°11' W 123°53'2 1.7
2014-Aug-26 18:32N 49°10' W 123°56'0 0.2
2014-Aug-26 17:33N 49°10' W 123°56'1 0.7
2014-Aug-26 16:33N 49°10' W 123°55'2 2.1
2014-Aug-26 15:33N 49°11' W 123°52'0 0.1
2014-Aug-26 14:29N 49°11' W 123°52'0 0.0
2014-Aug-26 13:31N 49°11' W 123°52'0 0.5
2014-Aug-26 12:33N 49°11' W 123°52'0 0.2
2014-Aug-26 10:25N 49°11' W 123°52'0 0.0
2014-Aug-26 09:13N 49°11' W 123°52'0 0.0
2014-Aug-26 08:31N 49°11' W 123°52'0 0.0
2014-Aug-26 07:31N 49°11' W 123°52'0 0.0
2014-Aug-26 06:31N 49°11' W 123°52'0 0.1
2014-Aug-26 05:26N 49°11' W 123°52'0 0.1
2014-Aug-26 04:05N 49°11' W 123°52'1 1.9
2014-Aug-26 03:34N 49°11' W 123°53'0 0.4
2014-Aug-26 02:33N 49°11' W 123°53'1 0.5
2014-Aug-26 01:33N 49°11' W 123°52'0 0.1
2014-Aug-26 00:29N 49°11' W 123°52'1 0.9
2014-Aug-25 23:34N 49°11' W 123°53'2 2.0
2014-Aug-25 22:33N 49°10' W 123°56'1 1.0
2014-Aug-25 21:33N 49°10' W 123°54'2 1.8
2014-Aug-25 20:33N 49°11' W 123°52'0 0.1
2014-Aug-25 19:33N 49°11' W 123°52'2 1.5
2014-Aug-25 18:30N 49°10' W 123°54'1 1.2
2014-Aug-25 17:22N 49°10' W 123°56'1 1.4
2014-Aug-25 16:33N 49°10' W 123°54'2 1.8
2014-Aug-25 15:33N 49°11' W 123°52'0 0.0
2014-Aug-25 14:33N 49°11' W 123°52'0 0.2
2014-Aug-25 13:33N 49°11' W 123°52'0 0.2
2014-Aug-25 12:33N 49°11' W 123°52'0 0.4
2014-Aug-25 11:21N 49°11' W 123°52'0 0.0
2014-Aug-25 09:27N 49°11' W 123°52'0 0.0
2014-Aug-25 08:21N 49°11' W 123°52'0 0.0
2014-Aug-25 07:33N 49°11' W 123°52'0 0.0
2014-Aug-25 06:33N 49°11' W 123°52'3 2.7
2014-Aug-25 05:33N 49°10' W 123°56'1 0.6
2014-Aug-25 03:34N 49°10' W 123°54'1 0.8
2014-Aug-25 02:33N 49°11' W 123°53'1 0.6
2014-Aug-25 01:31N 49°11' W 123°52'0 0.1
2014-Aug-25 00:30N 49°11' W 123°52'0 0.0
2014-Aug-24 23:16N 49°11' W 123°52'3 4.1
2014-Aug-24 22:33N 49°10' W 123°56'3 2.9
2014-Aug-24 21:33N 49°11' W 123°52'3 2.9
2014-Aug-24 20:32N 49°10' W 123°56'1 0.9
2014-Aug-24 19:34N 49°10' W 123°54'2 2.0
2014-Aug-24 18:33N 49°11' W 123°52'3 2.9
2014-Aug-24 17:34N 49°10' W 123°56'2 2.2
2014-Aug-24 16:31N 49°11' W 123°53'1 0.7
2014-Aug-24 15:33N 49°11' W 123°52'0 0.2
2014-Aug-24 13:33N 49°11' W 123°52'0 0.2
2014-Aug-24 10:25N 49°11' W 123°52'0 0.0
2014-Aug-24 09:31N 49°11' W 123°52'0 0.0
2014-Aug-24 08:31N 49°11' W 123°52'0 0.0
2014-Aug-24 07:25N 49°11' W 123°52'0 0.0
2014-Aug-24 06:31N 49°11' W 123°52'0 0.0
2014-Aug-24 05:32N 49°11' W 123°52'0 0.0
2014-Aug-24 04:32N 49°11' W 123°52'2 1.6
2014-Aug-24 03:33N 49°10' W 123°54'1 1.0
2014-Aug-24 02:33N 49°11' W 123°52'1 0.5
2014-Aug-24 01:32N 49°11' W 123°52'1 0.4
2014-Aug-24 00:19N 49°11' W 123°52'0 0.3
2014-Aug-23 23:33N 49°11' W 123°53'2 2.1
2014-Aug-23 22:33N 49°10' W 123°56'3 2.6
2014-Aug-23 21:28N 49°11' W 123°52'  
Track history (hours):
 
Tides and Currents Weather Stations Pressure Air Temp Water Temp Dewpoint Dewpoint Depression Visibility Wind Speed Wind Dir Waves Ship Positions

Quinsam

Last reported at 2014-Sep-02 20:33 UTC. Time now 2014-Sep-02 21:15 UTC.
Position N 49°11' W 123°52'.

Length 88 m; draft 1.5 m.

Type: Ship. MMSI: 316001266.

Date/timePositionNaut miles runAvg speedWind from/ knotsBaromVisibWave heightAir tempDewpointWater temp
2014-Sep-02 20:33N 49°11' W 123°52'0 0.3
2014-Sep-02 19:23N 49°11' W 123°52'1 1.4
2014-Sep-02 18:33N 49°10' W 123°53'2 1.7
2014-Sep-02 17:33N 49°10' W 123°56'0 0.0
2014-Sep-02 16:21N 49°10' W 123°56'2 3.0
2014-Sep-02 15:33N 49°11' W 123°52'1 0.5
2014-Sep-02 14:33N 49°11' W 123°52'0 0.3
2014-Sep-02 13:33N 49°11' W 123°52'0 0.3
2014-Sep-02 12:33N 49°11' W 123°52'1 0.5
2014-Sep-02 11:18N 49°11' W 123°52'0 0.0
2014-Sep-02 09:33N 49°11' W 123°52'0 0.0
2014-Sep-02 08:30N 49°11' W 123°52'0 0.1
2014-Sep-02 06:22N 49°11' W 123°52'0 0.2
2014-Sep-02 05:33N 49°11' W 123°52'0 0.0
2014-Sep-02 04:33N 49°11' W 123°52'1 1.4
2014-Sep-02 03:33N 49°10' W 123°54'1 0.5
2014-Sep-02 02:33N 49°11' W 123°53'1 0.9
2014-Sep-02 01:33N 49°11' W 123°52'0 0.0
2014-Sep-02 00:33N 49°11' W 123°52'0 0.2
2014-Sep-01 23:33N 49°11' W 123°52'3 2.6
2014-Sep-01 22:34N 49°10' W 123°56'3 2.6
2014-Sep-01 21:28N 49°11' W 123°52'2 2.6
2014-Sep-01 20:33N 49°10' W 123°55'0 0.5
2014-Sep-01 19:33N 49°10' W 123°56'0 0.0
2014-Sep-01 18:25N 49°10' W 123°56'1 1.7
2014-Sep-01 17:33N 49°10' W 123°54'1 1.4
2014-Sep-01 16:33N 49°11' W 123°52'0 0.0
2014-Sep-01 15:33N 49°11' W 123°52'0 0.0
2014-Sep-01 14:33N 49°11' W 123°52'1 0.6
2014-Sep-01 13:34N 49°11' W 123°53'0 0.1
2014-Sep-01 12:33N 49°11' W 123°52'1 0.5
2014-Sep-01 11:25N 49°11' W 123°52'0 0.0
2014-Sep-01 10:31N 49°11' W 123°52'0 0.0
2014-Sep-01 09:31N 49°11' W 123°52'0 0.0
2014-Sep-01 08:31N 49°11' W 123°52'0 0.0
2014-Sep-01 07:25N 49°11' W 123°52'0 0.0
2014-Sep-01 06:19N 49°11' W 123°52'3 3.6
2014-Sep-01 05:33N 49°10' W 123°56'3 2.8
2014-Sep-01 04:33N 49°11' W 123°52'2 1.5
2014-Sep-01 03:33N 49°10' W 123°54'1 0.8
2014-Sep-01 02:33N 49°11' W 123°53'1 0.8
2014-Sep-01 01:33N 49°11' W 123°52'0 0.0
2014-Sep-01 00:33N 49°11' W 123°52'1 0.7
2014-Aug-31 23:33N 49°11' W 123°53'2 1.8
2014-Aug-31 22:30N 49°10' W 123°55'3 2.7
2014-Aug-31 21:33N 49°11' W 123°52'3 2.2
2014-Aug-31 20:16N 49°10' W 123°56'2 3.0
2014-Aug-31 19:32N 49°11' W 123°53'1 0.8
2014-Aug-31 18:33N 49°11' W 123°52'3 2.9
2014-Aug-31 17:33N 49°10' W 123°56'3 2.7
2014-Aug-31 16:33N 49°11' W 123°52'0 0.3
2014-Aug-31 15:33N 49°11' W 123°52'3 2.7
2014-Aug-31 14:28N 49°10' W 123°56'2 2.6
2014-Aug-31 13:33N 49°11' W 123°52'1 0.5
2014-Aug-31 12:30N 49°11' W 123°52'0 0.0
2014-Aug-31 11:33N 49°11' W 123°52'0 0.0
2014-Aug-31 10:30N 49°11' W 123°52'0 0.0
2014-Aug-31 09:27N 49°11' W 123°52'0 0.0
2014-Aug-31 08:30N 49°11' W 123°52'0 0.0
2014-Aug-31 06:30N 49°11' W 123°52'0 0.0
2014-Aug-31 05:33N 49°11' W 123°52'0 0.0
2014-Aug-31 04:32N 49°11' W 123°52'1 1.0
2014-Aug-31 03:33N 49°11' W 123°53'0 0.2
2014-Aug-31 02:33N 49°11' W 123°53'0 0.4
2014-Aug-31 01:33N 49°11' W 123°52'0 0.3
2014-Aug-31 00:33N 49°11' W 123°52'0 0.2
2014-Aug-30 23:33N 49°11' W 123°52'3 2.6
2014-Aug-30 22:33N 49°10' W 123°56'3 2.6
2014-Aug-30 21:29N 49°11' W 123°52'3 3.0
2014-Aug-30 20:30N 49°10' W 123°56'1 0.9
2014-Aug-30 19:33N 49°10' W 123°55'2 2.0
2014-Aug-30 18:33N 49°11' W 123°52'3 2.8
2014-Aug-30 17:32N 49°10' W 123°56'2 2.5
2014-Aug-30 16:33N 49°11' W 123°52'0 0.4
2014-Aug-30 15:33N 49°11' W 123°52'0 0.0
2014-Aug-30 14:33N 49°11' W 123°52'0 0.4
2014-Aug-30 13:33N 49°11' W 123°52'0 0.4
2014-Aug-30 12:31N 49°11' W 123°52'0 0.0
2014-Aug-30 11:31N 49°11' W 123°52'0 0.0
2014-Aug-30 10:25N 49°11' W 123°52'0 0.0
2014-Aug-30 09:13N 49°11' W 123°52'0 0.0
2014-Aug-30 08:28N 49°11' W 123°52'0 0.2
2014-Aug-30 06:32N 49°11' W 123°52'0 0.1
2014-Aug-30 05:32N 49°11' W 123°52'1 0.4
2014-Aug-30 04:07N 49°11' W 123°52'3 5.1
2014-Aug-30 03:33N 49°10' W 123°56'0 0.1
2014-Aug-30 02:33N 49°10' W 123°56'2 1.6
2014-Aug-30 01:33N 49°10' W 123°53'1 1.2
2014-Aug-30 00:31N 49°11' W 123°52'0 0.4
2014-Aug-29 23:33N 49°11' W 123°52'2 2.5
2014-Aug-29 22:33N 49°10' W 123°56'2 2.0
2014-Aug-29 21:32N 49°11' W 123°53'1 0.7
2014-Aug-29 20:29N 49°11' W 123°52'3 3.1
2014-Aug-29 19:33N 49°10' W 123°56'0 0.0
2014-Aug-29 18:21N 49°10' W 123°56'1 1.5
2014-Aug-29 17:33N 49°10' W 123°54'1 1.4
2014-Aug-29 16:33N 49°11' W 123°52'0 0.2
2014-Aug-29 15:33N 49°11' W 123°52'0 0.0
2014-Aug-29 14:33N 49°11' W 123°52'0 0.4
2014-Aug-29 13:33N 49°11' W 123°52'0 0.2
2014-Aug-29 12:33N 49°11' W 123°52'1 0.5
2014-Aug-29 11:30N 49°11' W 123°52'0 0.0
2014-Aug-29 10:30N 49°11' W 123°52'0 0.0
2014-Aug-29 09:24N 49°11' W 123°52'0 0.0
2014-Aug-29 06:23N 49°11' W 123°52'0 0.1
2014-Aug-29 05:33N 49°11' W 123°52'0 0.0
2014-Aug-29 04:32N 49°11' W 123°52'3 2.9
2014-Aug-29 03:33N 49°10' W 123°56'0 0.0
2014-Aug-29 02:32N 49°10' W 123°56'2 1.7
2014-Aug-29 01:33N 49°10' W 123°53'1 0.5
2014-Aug-29 00:25N 49°11' W 123°53'0 0.1
2014-Aug-28 23:08N 49°11' W 123°52'2 4.0
2014-Aug-28 22:33N 49°10' W 123°56'1 0.8
2014-Aug-28 21:33N 49°10' W 123°55'1 1.2
2014-Aug-28 20:27N 49°11' W 123°53'0 0.2
2014-Aug-28 19:11N 49°11' W 123°53'1 2.3
2014-Aug-28 18:33N 49°10' W 123°55'1 0.8
2014-Aug-28 17:32N 49°10' W 123°56'1 1.2
2014-Aug-28 16:33N 49°10' W 123°54'2 1.7
2014-Aug-28 15:33N 49°11' W 123°52'0 0.0
2014-Aug-28 14:33N 49°11' W 123°52'0 0.0
2014-Aug-28 13:33N 49°11' W 123°52'0 0.2
2014-Aug-28 12:33N 49°11' W 123°52'0 0.1
2014-Aug-28 10:33N 49°11' W 123°52'0 0.0
2014-Aug-28 09:27N 49°11' W 123°52'0 0.0
2014-Aug-28 08:12N 49°11' W 123°52'0 0.0
2014-Aug-28 06:33N 49°11' W 123°52'3 2.1
2014-Aug-28 05:12N 49°10' W 123°56'1 0.7
2014-Aug-28 03:33N 49°10' W 123°54'0 0.1
2014-Aug-28 02:33N 49°10' W 123°54'1 0.8
2014-Aug-28 01:28N 49°11' W 123°53'1 0.9
2014-Aug-28 00:33N 49°11' W 123°52'0 0.4
2014-Aug-27 23:33N 49°11' W 123°52'2 2.5
2014-Aug-27 22:33N 49°10' W 123°56'3 2.9
2014-Aug-27 21:33N 49°11' W 123°52'1 0.8
2014-Aug-27 20:33N 49°11' W 123°53'2 2.0
2014-Aug-27 19:32N 49°10' W 123°56'0 0.0
2014-Aug-27 18:30N 49°10' W 123°56'0 0.2
2014-Aug-27 17:33N 49°10' W 123°56'2 2.1
2014-Aug-27 16:30N 49°11' W 123°52'1 0.6
2014-Aug-27 15:33N 49°11' W 123°52'0 0.0
2014-Aug-27 14:30N 49°11' W 123°52'0 0.1
2014-Aug-27 13:32N 49°11' W 123°52'0 0.3
2014-Aug-27 12:33N 49°11' W 123°52'0 0.4
2014-Aug-27 11:31N 49°11' W 123°52'0 0.0
2014-Aug-27 10:31N 49°11' W 123°52'0 0.0
2014-Aug-27 09:07N 49°11' W 123°52'0 0.0
2014-Aug-27 08:31N 49°11' W 123°52'0 0.0
2014-Aug-27 06:26N 49°11' W 123°52'0 0.0
2014-Aug-27 05:33N 49°11' W 123°52'0 0.0
2014-Aug-27 04:33N 49°11' W 123°52'1 1.5
2014-Aug-27 03:33N 49°10' W 123°54'1 0.9
2014-Aug-27 02:33N 49°11' W 123°52'0 0.4
2014-Aug-27 01:29N 49°11' W 123°52'0 0.0
2014-Aug-27 00:22N 49°11' W 123°52'1 0.9
2014-Aug-26 23:34N 49°11' W 123°53'2 2.0
2014-Aug-26 22:33N 49°10' W 123°56'2 2.1
2014-Aug-26 21:28N 49°11' W 123°53'0 0.4
2014-Aug-26 20:23N 49°11' W 123°52'1 0.9
2014-Aug-26 19:33N 49°11' W 123°53'2 1.7
2014-Aug-26 18:32N 49°10' W 123°56'0 0.2
2014-Aug-26 17:33N 49°10' W 123°56'1 0.7
2014-Aug-26 16:33N 49°10' W 123°55'2 2.1
2014-Aug-26 15:33N 49°11' W 123°52'0 0.1
2014-Aug-26 14:29N 49°11' W 123°52'0 0.0
2014-Aug-26 13:31N 49°11' W 123°52'0 0.5
2014-Aug-26 12:33N 49°11' W 123°52'0 0.2
2014-Aug-26 10:25N 49°11' W 123°52'0 0.0
2014-Aug-26 09:13N 49°11' W 123°52'0 0.0
2014-Aug-26 08:31N 49°11' W 123°52'0 0.0
2014-Aug-26 07:31N 49°11' W 123°52'0 0.0
2014-Aug-26 06:31N 49°11' W 123°52'0 0.1
2014-Aug-26 05:26N 49°11' W 123°52'0 0.1
2014-Aug-26 04:05N 49°11' W 123°52'1 1.9
2014-Aug-26 03:34N 49°11' W 123°53'0 0.4
2014-Aug-26 02:33N 49°11' W 123°53'1 0.5
2014-Aug-26 01:33N 49°11' W 123°52'0 0.1
2014-Aug-26 00:29N 49°11' W 123°52'1 0.9
2014-Aug-25 23:34N 49°11' W 123°53'2 2.0
2014-Aug-25 22:33N 49°10' W 123°56'1 1.0
2014-Aug-25 21:33N 49°10' W 123°54'2 1.8
2014-Aug-25 20:33N 49°11' W 123°52'0 0.1
2014-Aug-25 19:33N 49°11' W 123°52'2 1.5
2014-Aug-25 18:30N 49°10' W 123°54'1 1.2
2014-Aug-25 17:22N 49°10' W 123°56'1 1.4
2014-Aug-25 16:33N 49°10' W 123°54'2 1.8
2014-Aug-25 15:33N 49°11' W 123°52'0 0.0
2014-Aug-25 14:33N 49°11' W 123°52'0 0.2
2014-Aug-25 13:33N 49°11' W 123°52'0 0.2
2014-Aug-25 12:33N 49°11' W 123°52'0 0.4
2014-Aug-25 11:21N 49°11' W 123°52'0 0.0
2014-Aug-25 09:27N 49°11' W 123°52'0 0.0
2014-Aug-25 08:21N 49°11' W 123°52'0 0.0
2014-Aug-25 07:33N 49°11' W 123°52'0 0.0
2014-Aug-25 06:33N 49°11' W 123°52'3 2.7
2014-Aug-25 05:33N 49°10' W 123°56'1 0.6
2014-Aug-25 03:34N 49°10' W 123°54'1 0.8
2014-Aug-25 02:33N 49°11' W 123°53'1 0.6
2014-Aug-25 01:31N 49°11' W 123°52'0 0.1
2014-Aug-25 00:30N 49°11' W 123°52'0 0.0
2014-Aug-24 23:16N 49°11' W 123°52'3 4.1
2014-Aug-24 22:33N 49°10' W 123°56'3 2.9
2014-Aug-24 21:33N 49°11' W 123°52'3 2.9
2014-Aug-24 20:32N 49°10' W 123°56'1 0.9
2014-Aug-24 19:34N 49°10' W 123°54'2 2.0
2014-Aug-24 18:33N 49°11' W 123°52'3 2.9
2014-Aug-24 17:34N 49°10' W 123°56'2 2.2
2014-Aug-24 16:31N 49°11' W 123°53'1 0.7
2014-Aug-24 15:33N 49°11' W 123°52'0 0.2
2014-Aug-24 13:33N 49°11' W 123°52'0 0.2
2014-Aug-24 10:25N 49°11' W 123°52'0 0.0
2014-Aug-24 09:31N 49°11' W 123°52'0 0.0
2014-Aug-24 08:31N 49°11' W 123°52'0 0.0
2014-Aug-24 07:25N 49°11' W 123°52'0 0.0
2014-Aug-24 06:31N 49°11' W 123°52'0 0.0
2014-Aug-24 05:32N 49°11' W 123°52'0 0.0
2014-Aug-24 04:32N 49°11' W 123°52'2 1.6
2014-Aug-24 03:33N 49°10' W 123°54'1 1.0
2014-Aug-24 02:33N 49°11' W 123°52'1 0.5
2014-Aug-24 01:32N 49°11' W 123°52'1 0.4
2014-Aug-24 00:19N 49°11' W 123°52'0 0.3
2014-Aug-23 23:33N 49°11' W 123°53'2 2.1
2014-Aug-23 22:33N 49°10' W 123°56'3 2.6
2014-Aug-23 21:28N 49°11' W 123°52'  

Dump ship's entire track history